Time;durP1;ratioP1;P1;durP2;ratioP2;P2;SDS_P1;SDS_P2;PMS_P1;PMS_P2;Temp;Humidity;BMP_temperature;BMP_pressure;BME280_temperature;BME280_humidity;BME280_pressure;Samples;Min_cycle;Max_cycle;Signal;HPM_P1;HPM_P2
2021/07/29 00:00:57;;;;;;;6.63;6.13;;;16.80;99.90;;;;;;5051697;28;20440;-65
2021/07/29 00:03:23;;;;;;;6.93;6.30;;;16.80;99.90;;;;;;5051091;28;20857;-64
2021/07/29 00:05:50;;;;;;;5.60;5.13;;;16.70;99.90;;;;;;5071039;28;20444;-65
2021/07/29 00:08:18;;;;;;;5.60;5.30;;;16.70;99.90;;;;;;5058827;28;20997;-64
2021/07/29 00:10:45;;;;;;;5.17;4.87;;;16.60;99.90;;;;;;5063848;28;20533;-64
2021/07/29 00:13:12;;;;;;;6.20;5.70;;;16.60;99.90;;;;;;5070731;28;20522;-64
2021/07/29 00:15:40;;;;;;;5.87;5.47;;;16.60;99.90;;;;;;5051686;28;20447;-64
2021/07/29 00:20:51;;;;;;;5.13;4.83;;;16.70;99.90;;;;;;5054431;28;20444;-64
2021/07/29 00:23:18;;;;;;;5.63;5.23;;;16.70;99.90;;;;;;5070635;28;21013;-64
2021/07/29 00:25:45;;;;;;;5.20;4.83;;;16.70;99.90;;;;;;5056166;28;20439;-64
2021/07/29 00:28:12;;;;;;;5.50;5.10;;;16.70;99.90;;;;;;5070706;28;20459;-64
2021/07/29 00:30:40;;;;;;;5.63;5.13;;;16.70;99.90;;;;;;5065792;28;20807;-64
2021/07/29 00:33:06;;;;;;;5.77;5.20;;;16.80;99.90;;;;;;5050712;28;20444;-64
2021/07/29 00:35:33;;;;;;;5.37;5.00;;;16.80;99.90;;;;;;5067222;28;20446;-64
2021/07/29 00:38:02;;;;;;;6.03;5.20;;;16.80;99.90;;;;;;5070524;28;20986;-64
2021/07/29 00:40:29;;;;;;;5.53;5.00;;;16.80;99.90;;;;;;5051689;28;20503;-64
2021/07/29 00:42:57;;;;;;;5.00;4.60;;;16.70;99.90;;;;;;5054194;28;20471;-64
2021/07/29 00:45:23;;;;;;;6.73;6.13;;;16.70;99.90;;;;;;5054086;28;20452;-64
2021/07/29 00:47:52;;;;;;;7.10;5.70;;;16.70;99.90;;;;;;5054174;28;20467;-64
2021/07/29 00:50:19;;;;;;;5.93;4.70;;;16.60;99.90;;;;;;5072045;28;20447;-64
2021/07/29 00:52:48;;;;;;;6.93;6.33;;;16.60;99.90;;;;;;5073840;28;20439;-65
2021/07/29 00:55:15;;;;;;;7.37;5.90;;;16.60;99.90;;;;;;5073853;28;20501;-65
2021/07/29 00:57:43;;;;;;;7.03;6.17;;;16.50;99.90;;;;;;5074004;28;20482;-65
2021/07/29 01:00:12;;;;;;;5.93;5.23;;;16.50;99.90;;;;;;5069044;28;20444;-65
2021/07/29 01:02:39;;;;;;;6.27;5.00;;;16.40;99.90;;;;;;5054649;28;20510;-65
2021/07/29 01:05:09;;;;;;;5.40;5.00;;;16.30;99.90;;;;;;5053520;28;20448;-65
2021/07/29 01:07:36;;;;;;;5.90;5.30;;;16.20;99.90;;;;;;5066910;28;20467;-65
2021/07/29 01:10:04;;;;;;;10.83;5.60;;;16.30;99.90;;;;;;5062037;28;20488;-64
2021/07/29 01:12:31;;;;;;;9.33;5.70;;;16.20;99.90;;;;;;5073097;28;20440;-65
2021/07/29 01:14:57;;;;;;;6.43;5.90;;;16.10;99.90;;;;;;5073419;28;20459;-64
2021/07/29 01:17:24;;;;;;;5.63;4.77;;;16.10;99.90;;;;;;5073249;28;20458;-64
2021/07/29 01:19:51;;;;;;;9.83;5.10;;;16.00;99.90;;;;;;5059452;28;20867;-64
2021/07/29 01:22:19;;;;;;;5.80;5.40;;;16.00;99.90;;;;;;5053219;28;20522;-64
2021/07/29 01:24:46;;;;;;;5.73;4.90;;;15.90;99.90;;;;;;5053422;28;20474;-64
2021/07/29 01:27:12;;;;;;;6.70;5.57;;;16.00;99.90;;;;;;5062258;28;20447;-64
2021/07/29 01:29:39;;;;;;;7.53;5.87;;;15.90;99.90;;;;;;5061327;28;20471;-64
2021/07/29 01:32:06;;;;;;;5.57;4.90;;;15.90;99.90;;;;;;5054242;28;20441;-64
2021/07/29 01:34:34;;;;;;;7.37;4.50;;;15.90;99.90;;;;;;5061844;28;20765;-64
2021/07/29 01:37:00;;;;;;;5.67;5.10;;;15.80;99.90;;;;;;5073215;28;20447;-64
2021/07/29 01:39:28;;;;;;;5.23;4.87;;;15.80;99.90;;;;;;5061478;28;20464;-64
2021/07/29 01:41:55;;;;;;;8.13;5.90;;;15.80;99.90;;;;;;5054161;28;20575;-64
2021/07/29 01:44:22;;;;;;;6.43;5.83;;;15.80;99.90;;;;;;5055279;28;20936;-64
2021/07/29 01:46:48;;;;;;;5.20;4.80;;;15.80;99.90;;;;;;5072037;28;20474;-64
2021/07/29 01:49:21;;;;;;;5.70;5.20;;;15.80;99.90;;;;;;5065315;28;20464;-64
2021/07/29 01:51:48;;;;;;;11.10;5.90;;;15.80;99.90;;;;;;5062415;28;20448;-64
2021/07/29 01:54:15;;;;;;;7.83;5.23;;;15.80;99.90;;;;;;5073183;28;20450;-64
2021/07/29 01:56:43;;;;;;;4.97;4.67;;;15.80;99.90;;;;;;5072536;28;20522;-64
2021/07/29 01:59:10;;;;;;;5.97;5.47;;;15.70;99.90;;;;;;5065350;28;20547;-64
2021/07/29 02:01:37;;;;;;;6.43;5.60;;;15.70;99.90;;;;;;5052629;28;20450;-64
2021/07/29 02:04:04;;;;;;;7.27;5.13;;;15.60;99.90;;;;;;5052769;28;20546;-64
2021/07/29 02:06:31;;;;;;;6.77;5.63;;;15.60;99.90;;;;;;5052765;28;20963;-64
2021/07/29 02:08:58;;;;;;;6.57;5.23;;;15.60;99.90;;;;;;5057741;28;20468;-64
2021/07/29 02:11:29;;;;;;;7.77;4.57;;;15.60;99.90;;;;;;5070744;28;20995;-65
2021/07/29 02:13:57;;;;;;;5.13;4.73;;;15.50;99.90;;;;;;5072721;28;20497;-64
2021/07/29 02:16:25;;;;;;;6.93;4.90;;;15.60;99.90;;;;;;5072391;28;20444;-64
2021/07/29 02:18:52;;;;;;;4.90;4.50;;;15.60;99.90;;;;;;5067974;28;20874;-64
2021/07/29 02:21:19;;;;;;;6.10;4.50;;;15.60;99.90;;;;;;5053421;28;20874;-64
2021/07/29 02:23:46;;;;;;;6.23;5.00;;;15.50;99.90;;;;;;5052013;28;20499;-64
2021/07/29 02:26:13;;;;;;;6.10;5.20;;;15.50;99.90;;;;;;5061422;28;20477;-64
2021/07/29 02:28:40;;;;;;;6.57;5.40;;;15.50;99.90;;;;;;5060453;28;20466;-64
2021/07/29 02:31:08;;;;;;;4.53;4.13;;;15.40;99.90;;;;;;5071887;28;20446;-64
2021/07/29 02:33:35;;;;;;;6.93;4.73;;;15.50;99.90;;;;;;5072323;28;20467;-64
2021/07/29 02:36:02;;;;;;;5.93;5.43;;;15.40;99.90;;;;;;5057027;28;20452;-64
2021/07/29 02:38:28;;;;;;;6.67;4.73;;;15.40;99.90;;;;;;5053477;28;20464;-64
2021/07/29 02:40:55;;;;;;;6.67;5.00;;;15.40;99.90;;;;;;5071661;28;20447;-64
2021/07/29 02:43:22;;;;;;;6.33;5.40;;;15.40;99.90;;;;;;5071712;28;20486;-64
2021/07/29 02:45:52;;;;;;;5.07;4.67;;;15.40;99.90;;;;;;5071619;28;20443;-64
2021/07/29 02:48:20;;;;;;;8.67;4.83;;;15.40;99.90;;;;;;5071630;28;20810;-64
2021/07/29 02:50:52;;;;;;;5.27;4.70;;;15.40;99.90;;;;;;5053445;28;20440;-64
2021/07/29 02:53:19;;;;;;;4.90;4.43;;;15.30;99.90;;;;;;5052068;28;20491;-64
2021/07/29 02:55:46;;;;;;;6.90;5.10;;;15.30;99.90;;;;;;5067273;28;20849;-64
2021/07/29 02:58:13;;;;;;;7.20;6.67;;;15.30;99.90;;;;;;5071224;28;20460;-64
2021/07/29 03:00:40;;;;;;;8.70;6.07;;;15.30;99.90;;;;;;5053393;28;20866;-64
2021/07/29 03:03:06;;;;;;;8.67;5.13;;;15.20;99.90;;;;;;5051334;28;20487;-64
2021/07/29 03:05:34;;;;;;;7.07;5.10;;;15.20;99.90;;;;;;5053614;28;20447;-64
2021/07/29 03:08:01;;;;;;;7.23;5.20;;;15.20;99.90;;;;;;5061265;28;20479;-64
2021/07/29 03:10:28;;;;;;;4.90;4.30;;;15.20;99.90;;;;;;5054878;28;20473;-64
2021/07/29 03:12:55;;;;;;;8.60;5.10;;;15.20;99.90;;;;;;5061101;28;20440;-64
2021/07/29 03:15:22;;;;;;;5.90;5.40;;;15.20;99.90;;;;;;5051231;28;20507;-64
2021/07/29 03:17:48;;;;;;;6.47;4.50;;;15.30;99.90;;;;;;5051323;28;20464;-64
2021/07/29 03:20:15;;;;;;;6.53;5.37;;;15.30;99.90;;;;;;5064044;28;20454;-64
2021/07/29 03:22:43;;;;;;;5.93;5.33;;;15.30;99.90;;;;;;5067009;28;20540;-63
2021/07/29 03:25:10;;;;;;;4.97;4.23;;;15.30;99.90;;;;;;5071030;28;20794;-64
2021/07/29 03:27:37;;;;;;;6.60;4.60;;;15.30;99.90;;;;;;5070214;28;20467;-64
2021/07/29 03:30:04;;;;;;;11.57;6.40;;;15.30;99.90;;;;;;5059271;28;20451;-64
2021/07/29 03:32:31;;;;;;;7.27;5.57;;;15.40;99.90;;;;;;5051009;28;20445;-64
2021/07/29 03:34:58;;;;;;;6.40;5.63;;;15.40;99.90;;;;;;5070006;28;20460;-63
2021/07/29 03:37:25;;;;;;;9.10;8.30;;;15.40;99.90;;;;;;5070868;28;20447;-63
2021/07/29 03:39:53;;;;;;;9.93;4.60;;;15.40;99.90;;;;;;5060282;28;20451;-64
2021/07/29 03:42:22;;;;;;;5.70;5.23;;;15.50;99.90;;;;;;5060237;28;20565;-64
2021/07/29 03:44:49;;;;;;;5.00;4.60;;;15.50;99.90;;;;;;5070152;28;20531;-63
2021/07/29 03:47:16;;;;;;;7.73;4.60;;;15.50;99.90;;;;;;5070282;28;20447;-63
2021/07/29 03:49:49;;;;;;;8.97;5.80;;;15.60;99.90;;;;;;5067614;28;20946;-63
2021/07/29 03:52:16;;;;;;;9.83;5.03;;;15.60;99.90;;;;;;5035746;28;20917;-63
2021/07/29 03:54:43;;;;;;;6.00;5.40;;;15.60;99.90;;;;;;5064939;28;20812;-64
2021/07/29 03:57:12;;;;;;;9.50;5.27;;;15.60;99.90;;;;;;5051189;28;20820;-65
2021/07/29 03:59:38;;;;;;;5.73;5.23;;;15.60;99.90;;;;;;5052196;28;20975;-65
2021/07/29 04:02:09;;;;;;;5.90;4.87;;;15.70;99.90;;;;;;5064801;28;20450;-65
2021/07/29 04:04:37;;;;;;;11.10;5.73;;;15.60;99.90;;;;;;5068997;28;20447;-64
2021/07/29 04:07:08;;;;;;;5.90;4.37;;;15.70;99.90;;;;;;5068846;28;20443;-64
2021/07/29 04:09:36;;;;;;;8.90;4.90;;;15.70;99.90;;;;;;5039526;28;20475;-64
2021/07/29 04:12:03;;;;;;;6.80;5.33;;;15.80;99.90;;;;;;5050812;28;20444;-63
2021/07/29 04:14:31;;;;;;;10.23;4.40;;;15.80;99.90;;;;;;5068896;28;20463;-63
2021/07/29 04:16:58;;;;;;;5.43;4.33;;;15.90;99.90;;;;;;5072325;28;20451;-61
2021/07/29 04:19:25;;;;;;;5.03;4.73;;;15.90;99.90;;;;;;5074150;28;20474;-62
2021/07/29 04:21:51;;;;;;;5.77;5.30;;;15.90;99.90;;;;;;5063243;28;20444;-63
2021/07/29 04:24:18;;;;;;;6.33;5.43;;;16.00;99.90;;;;;;5054595;28;20847;-62
2021/07/29 04:26:45;;;;;;;4.80;4.47;;;16.00;99.90;;;;;;5054815;28;20439;-63
2021/07/29 04:29:12;;;;;;;5.80;5.30;;;16.00;99.90;;;;;;5060097;28;20989;-63
2021/07/29 04:31:40;;;;;;;6.40;5.10;;;16.00;99.90;;;;;;5074412;28;20450;-62
2021/07/29 04:34:07;;;;;;;6.03;5.37;;;16.00;99.90;;;;;;5074609;28;20492;-64
2021/07/29 04:36:39;;;;;;;6.00;5.60;;;16.10;99.90;;;;;;5074557;28;20469;-63
2021/07/29 04:39:06;;;;;;;6.10;5.70;;;16.10;99.90;;;;;;5069672;28;20467;-63
2021/07/29 04:41:33;;;;;;;5.50;5.10;;;16.20;99.90;;;;;;5054488;28;20542;-63
2021/07/29 04:44:00;;;;;;;8.13;6.40;;;16.30;99.90;;;;;;5054439;28;20479;-62
2021/07/29 04:46:26;;;;;;;10.87;6.53;;;16.30;99.90;;;;;;5054496;28;20451;-64
2021/07/29 04:48:54;;;;;;;7.00;6.40;;;16.40;99.90;;;;;;5070609;28;20467;-63
2021/07/29 04:51:21;;;;;;;8.70;6.80;;;16.50;99.90;;;;;;5074105;28;20447;-63
2021/07/29 04:53:48;;;;;;;9.30;8.40;;;16.50;99.90;;;;;;5074218;28;20811;-63
2021/07/29 04:56:14;;;;;;;8.53;8.03;;;16.50;99.90;;;;;;5074348;28;20443;-64
2021/07/29 04:58:41;;;;;;;10.40;9.50;;;16.50;99.90;;;;;;5059435;28;20468;-64
2021/07/29 05:01:08;;;;;;;9.70;9.20;;;16.60;99.90;;;;;;5053782;28;20478;-62
2021/07/29 05:03:34;;;;;;;9.90;9.30;;;16.60;99.90;;;;;;5054185;28;20480;-64
2021/07/29 05:06:02;;;;;;;11.60;10.53;;;16.70;99.90;;;;;;5054087;28;20467;-63
2021/07/29 05:08:29;;;;;;;11.93;10.90;;;16.70;99.90;;;;;;5066253;28;20471;-64
2021/07/29 05:10:56;;;;;;;10.77;10.07;;;16.80;99.90;;;;;;5073779;28;20444;-63
2021/07/29 05:13:22;;;;;;;10.97;10.13;;;16.80;99.90;;;;;;5073769;28;20431;-64
2021/07/29 05:15:49;;;;;;;11.57;10.50;;;16.80;99.90;;;;;;5073842;28;20444;-64
2021/07/29 05:18:16;;;;;;;11.80;11.03;;;16.90;99.90;;;;;;5063037;28;20468;-63
2021/07/29 05:20:42;;;;;;;11.37;10.80;;;16.90;99.90;;;;;;5053718;28;20444;-63
2021/07/29 05:23:10;;;;;;;11.23;10.50;;;17.00;99.90;;;;;;5053490;28;20483;-64
2021/07/29 05:25:37;;;;;;;13.13;12.43;;;17.00;99.90;;;;;;5053738;28;20444;-61
2021/07/29 05:28:04;;;;;;;12.80;12.00;;;17.00;99.90;;;;;;5060336;28;20467;-64
2021/07/29 05:30:31;;;;;;;13.23;12.40;;;17.10;99.90;;;;;;5073584;28;20447;-63
2021/07/29 05:32:58;;;;;;;13.53;12.83;;;17.10;99.90;;;;;;5073463;28;20446;-62
2021/07/29 05:35:25;;;;;;;15.13;14.20;;;17.20;99.90;;;;;;5073420;28;20477;-63
2021/07/29 05:37:52;;;;;;;14.07;13.50;;;17.30;99.90;;;;;;5066737;28;20456;-61
2021/07/29 05:40:20;;;;;;;14.70;13.70;;;17.40;99.90;;;;;;5053654;28;20440;-63
2021/07/29 05:42:46;;;;;;;13.20;12.60;;;17.50;99.90;;;;;;5053150;28;20483;-62
2021/07/29 05:45:13;;;;;;;14.70;13.80;;;17.50;99.90;;;;;;5053271;28;20440;-63
2021/07/29 05:47:40;;;;;;;13.93;13.30;;;17.50;99.90;;;;;;5057718;28;20463;-63
2021/07/29 05:50:07;;;;;;;15.80;14.70;;;17.40;99.90;;;;;;5073208;28;20448;-62
2021/07/29 05:52:33;;;;;;;14.17;13.40;;;17.50;99.90;;;;;;5072653;28;20938;-63
2021/07/29 05:55:00;;;;;;;14.47;13.87;;;17.60;99.90;;;;;;5073144;28;20442;-63
2021/07/29 05:57:28;;;;;;;15.30;14.60;;;17.60;99.90;;;;;;5070052;28;20813;-62
2021/07/29 05:59:55;;;;;;;14.73;14.03;;;17.70;99.90;;;;;;5053098;28;20452;-63
2021/07/29 06:02:21;;;;;;;15.67;14.50;;;17.80;99.90;;;;;;5052882;28;20456;-63
2021/07/29 06:04:48;;;;;;;16.07;14.87;;;17.90;99.90;;;;;;5053061;28;20484;-64
2021/07/29 06:07:15;;;;;;;15.13;14.43;;;17.90;99.90;;;;;;5053717;28;20440;-62
2021/07/29 06:09:42;;;;;;;14.90;14.17;;;18.10;99.90;;;;;;5072784;28;20443;-63
2021/07/29 06:12:09;;;;;;;15.77;14.77;;;18.20;99.90;;;;;;5072513;28;20446;-62
2021/07/29 06:14:37;;;;;;;15.80;14.90;;;18.10;99.90;;;;;;5072646;28;20443;-61
2021/07/29 06:17:04;;;;;;;17.23;15.50;;;18.10;99.90;;;;;;5072421;28;20446;-64
2021/07/29 06:19:32;;;;;;;16.90;15.90;;;18.10;99.90;;;;;;5053032;28;20464;-63
2021/07/29 06:21:59;;;;;;;16.43;15.33;;;18.00;99.90;;;;;;5052506;28;20822;-63
2021/07/29 06:24:26;;;;;;;15.67;14.77;;;18.10;99.90;;;;;;5052573;28;20801;-62
2021/07/29 06:26:54;;;;;;;15.70;14.77;;;18.10;99.90;;;;;;5052513;28;20962;-63
2021/07/29 06:29:21;;;;;;;15.67;14.87;;;18.00;99.90;;;;;;5069871;28;20528;-64
2021/07/29 06:31:49;;;;;;;16.17;15.00;;;17.90;99.90;;;;;;5072154;28;20470;-63
2021/07/29 06:34:16;;;;;;;16.83;15.60;;;17.80;99.90;;;;;;5072421;28;20805;-64
2021/07/29 06:36:42;;;;;;;15.70;14.70;;;17.80;99.90;;;;;;5072311;28;20440;-63
2021/07/29 06:39:09;;;;;;;15.00;14.30;;;17.90;99.90;;;;;;5055651;28;20476;-63
2021/07/29 06:41:37;;;;;;;15.57;14.47;;;17.90;99.90;;;;;;5052099;28;20444;-64
2021/07/29 06:44:07;;;;;;;16.00;15.20;;;17.70;99.90;;;;;;5052004;28;20479;-64
2021/07/29 06:46:36;;;;;;;16.10;15.00;;;17.80;99.90;;;;;;5052249;28;20827;-63
2021/07/29 06:49:04;;;;;;;16.10;14.70;;;17.90;99.90;;;;;;5071942;28;20819;-63
2021/07/29 06:51:31;;;;;;;15.90;14.70;;;17.80;99.90;;;;;;5071852;28;20443;-63
2021/07/29 06:53:59;;;;;;;15.10;14.20;;;17.80;99.90;;;;;;5071870;28;20444;-62
2021/07/29 06:56:26;;;;;;;15.50;14.63;;;17.80;99.90;;;;;;5071822;28;20443;-63
2021/07/29 06:58:52;;;;;;;15.30;14.50;;;17.90;99.90;;;;;;5052200;28;20471;-63
2021/07/29 07:01:19;;;;;;;15.93;15.03;;;17.90;99.90;;;;;;5065674;28;20443;-63
2021/07/29 07:03:47;;;;;;;15.53;14.93;;;18.10;99.90;;;;;;5071622;28;20475;-63
2021/07/29 07:06:15;;;;;;;17.67;16.33;;;18.10;99.90;;;;;;5071718;28;20505;-63
2021/07/29 07:08:42;;;;;;;20.90;15.93;;;18.10;99.90;;;;;;5071204;28;20978;-64
2021/07/29 07:11:15;;;;;;;15.73;14.63;;;18.20;99.90;;;;;;5051417;28;20523;-63
2021/07/29 07:13:43;;;;;;;15.87;15.17;;;18.40;99.90;;;;;;5051688;28;20444;-64
2021/07/29 07:16:11;;;;;;;16.70;15.20;;;18.40;99.90;;;;;;5051575;28;20945;-63
2021/07/29 07:18:38;;;;;;;15.70;14.80;;;18.40;99.90;;;;;;5051485;28;20490;-64
2021/07/29 07:21:06;;;;;;;15.47;14.50;;;18.40;99.90;;;;;;5052360;28;20494;-64
2021/07/29 07:23:34;;;;;;;15.83;14.87;;;18.50;99.90;;;;;;5051303;28;20499;-64
2021/07/29 07:26:02;;;;;;;15.60;14.70;;;18.60;99.90;;;;;;5031645;28;20445;-63
2021/07/29 07:28:28;;;;;;;16.53;15.53;;;18.90;99.90;;;;;;5031437;28;20468;-62
2021/07/29 07:30:55;;;;;;;17.00;15.70;;;19.30;99.90;;;;;;5036067;28;20452;-63
2021/07/29 07:33:22;;;;;;;16.57;15.37;;;19.60;99.90;;;;;;5071320;28;20439;-63
2021/07/29 07:35:52;;;;;;;16.27;15.47;;;19.70;99.90;;;;;;5071378;28;20451;-62
2021/07/29 07:38:19;;;;;;;15.80;14.93;;;19.90;99.90;;;;;;5071413;28;20467;-62
2021/07/29 07:40:47;;;;;;;16.30;15.40;;;20.00;99.90;;;;;;5071373;28;20443;-63
2021/07/29 07:43:13;;;;;;;16.57;15.70;;;20.10;99.90;;;;;;5066941;28;20752;-62
2021/07/29 07:45:41;;;;;;;15.87;14.97;;;20.30;99.90;;;;;;5051464;28;20483;-63
2021/07/29 07:48:09;;;;;;;16.93;15.83;;;20.20;99.90;;;;;;5051401;28;20467;-63
2021/07/29 07:50:38;;;;;;;16.03;15.30;;;20.20;99.90;;;;;;5052402;28;20989;-63
2021/07/29 07:53:05;;;;;;;16.07;15.37;;;20.10;99.90;;;;;;5055030;28;20451;-63
2021/07/29 07:55:32;;;;;;;17.60;16.80;;;20.00;99.90;;;;;;5061603;28;20471;-62
2021/07/29 07:58:00;;;;;;;17.90;16.70;;;20.00;99.90;;;;;;5075540;28;20805;-63
2021/07/29 08:00:26;;;;;;;16.33;15.63;;;19.90;99.90;;;;;;5075576;28;20822;-64
2021/07/29 08:02:53;;;;;;;16.17;15.37;;;19.90;99.90;;;;;;5075396;28;20469;-64
2021/07/29 08:05:20;;;;;;;17.57;16.40;;;19.90;99.90;;;;;;5075379;28;20486;-63
2021/07/29 08:07:46;;;;;;;16.90;16.10;;;20.10;99.90;;;;;;5064871;28;20468;-63
2021/07/29 08:10:13;;;;;;;17.70;16.50;;;20.40;99.90;;;;;;5055104;28;20448;-63
2021/07/29 08:12:40;;;;;;;17.07;15.97;;;20.60;99.90;;;;;;5054922;28;20452;-64
2021/07/29 08:15:09;;;;;;;16.50;15.70;;;20.60;99.90;;;;;;5056145;28;20440;-64
2021/07/29 08:17:36;;;;;;;16.37;15.67;;;20.60;99.90;;;;;;5054909;28;20851;-64
2021/07/29 08:20:03;;;;;;;16.27;15.70;;;20.80;99.90;;;;;;5055242;28;20443;-64
2021/07/29 08:22:29;;;;;;;17.20;16.20;;;21.10;99.90;;;;;;5054813;28;20443;-64
2021/07/29 08:24:57;;;;;;;16.93;15.90;;;21.10;99.90;;;;;;5059374;28;20486;-64
2021/07/29 08:27:23;;;;;;;15.73;14.97;;;21.30;99.90;;;;;;5072824;28;20462;-64
2021/07/29 08:29:50;;;;;;;16.13;15.40;;;21.10;98.30;;;;;;5072753;28;20454;-64
2021/07/29 08:32:19;;;;;;;20.43;19.00;;;20.90;99.00;;;;;;5074467;28;20442;-64
2021/07/29 08:34:45;;;;;;;16.90;16.23;;;20.90;98.20;;;;;;5074477;28;20530;-64
2021/07/29 08:37:13;;;;;;;16.37;15.70;;;20.70;98.30;;;;;;5074543;28;20922;-64
2021/07/29 08:39:40;;;;;;;17.20;16.20;;;20.90;99.10;;;;;;5060370;28;20464;-64
2021/07/29 08:42:06;;;;;;;16.37;15.67;;;21.30;98.80;;;;;;5054138;28;20467;-64
2021/07/29 08:44:34;;;;;;;16.10;15.17;;;21.30;97.60;;;;;;5054195;28;20480;-64
2021/07/29 08:47:04;;;;;;;15.57;15.07;;;21.00;97.90;;;;;;5054488;28;20870;-63
2021/07/29 08:49:33;;;;;;;15.87;15.17;;;21.00;97.50;;;;;;5054332;28;20473;-63
2021/07/29 08:52:00;;;;;;;16.10;15.50;;;20.80;97.20;;;;;;5069378;28;20446;-63
2021/07/29 08:54:26;;;;;;;15.50;14.70;;;20.80;98.10;;;;;;5074409;28;20440;-64
2021/07/29 08:56:53;;;;;;;15.67;14.97;;;20.80;99.40;;;;;;5074064;28;20817;-64
2021/07/29 08:59:20;;;;;;;15.50;14.90;;;21.00;98.00;;;;;;5074061;28;20815;-64
2021/07/29 09:01:52;;;;;;;16.33;15.73;;;21.20;97.40;;;;;;5073635;28;20447;-64
2021/07/29 09:04:19;;;;;;;16.77;15.90;;;21.80;96.60;;;;;;5056026;28;20475;-63
2021/07/29 09:07:02;;;;;;;15.53;14.83;;;21.90;93.70;;;;;;5054077;28;20475;-64
2021/07/29 09:09:42;;;;;;;16.13;15.53;;;22.00;93.80;;;;;;5054383;28;20472;-63
2021/07/29 09:12:20;;;;;;;16.13;15.43;;;22.00;92.20;;;;;;5053671;28;20444;-63
2021/07/29 09:14:47;;;;;;;15.97;15.17;;;22.30;91.90;;;;;;5058740;28;20501;-64
2021/07/29 09:17:15;;;;;;;16.70;15.90;;;22.40;92.20;;;;;;5073944;28;20866;-63
2021/07/29 09:19:44;;;;;;;15.67;14.93;;;22.40;91.00;;;;;;5073974;28;20504;-64
2021/07/29 09:22:17;;;;;;;17.70;16.60;;;22.70;90.70;;;;;;5074086;28;20874;-62
2021/07/29 09:24:59;;;;;;;15.83;15.13;;;23.00;90.50;;;;;;5055145;28;20509;-64
2021/07/29 09:27:26;;;;;;;16.53;15.40;;;22.90;90.60;;;;;;5053645;28;20502;-63
2021/07/29 09:29:53;;;;;;;16.03;15.23;;;22.60;89.80;;;;;;5053881;28;20448;-63
2021/07/29 09:32:21;;;;;;;15.37;14.67;;;22.40;89.80;;;;;;5063973;28;20459;-63
2021/07/29 09:34:50;;;;;;;16.27;15.67;;;22.50;89.90;;;;;;5053339;28;20472;-61
2021/07/29 09:37:19;;;;;;;15.70;14.90;;;22.90;88.00;;;;;;5053522;28;20447;-63
2021/07/29 09:39:58;;;;;;;17.27;15.97;;;23.00;87.70;;;;;;5054372;28;20472;-64
2021/07/29 09:42:25;;;;;;;16.50;15.67;;;23.00;85.00;;;;;;5054414;28;20482;-63
2021/07/29 09:44:53;;;;;;;16.73;16.00;;;22.80;83.90;;;;;;5053274;28;20483;-63
2021/07/29 09:47:20;;;;;;;16.27;15.57;;;22.70;84.80;;;;;;5053208;28;20452;-64
2021/07/29 09:49:48;;;;;;;16.60;15.80;;;22.80;85.40;;;;;;5053273;28;20978;-63
2021/07/29 09:52:15;;;;;;;15.70;15.10;;;22.50;84.30;;;;;;5054840;28;20451;-63
2021/07/29 09:54:45;;;;;;;17.00;16.10;;;22.20;86.00;;;;;;5072725;28;20443;-63
2021/07/29 09:57:12;;;;;;;16.07;15.40;;;22.10;86.70;;;;;;5072768;28;20450;-62
2021/07/29 09:59:40;;;;;;;15.97;15.30;;;22.10;84.00;;;;;;5072922;28;20933;-63
2021/07/29 10:02:08;;;;;;;16.43;15.80;;;22.10;84.70;;;;;;5072614;28;20809;-63
2021/07/29 10:04:40;;;;;;;16.53;15.73;;;22.20;86.40;;;;;;5067356;28;20488;-63
2021/07/29 10:07:11;;;;;;;16.73;15.90;;;22.60;86.80;;;;;;5052916;28;20451;-63
2021/07/29 10:09:45;;;;;;;17.57;16.67;;;22.90;86.60;;;;;;5052734;28;20483;-63
2021/07/29 10:12:19;;;;;;;17.00;16.30;;;23.20;84.80;;;;;;5052686;28;20451;-64
2021/07/29 10:14:46;;;;;;;17.37;16.47;;;23.20;82.00;;;;;;5052119;28;20467;-64
2021/07/29 10:17:13;;;;;;;16.80;15.90;;;22.90;79.80;;;;;;5065041;28;20450;-64
2021/07/29 10:20:16;;;;;;;16.33;15.50;;;22.80;75.90;;;;;;5072598;28;20471;-63
2021/07/29 10:22:44;;;;;;;17.53;16.50;;;22.60;75.60;;;;;;5072331;28;20545;-61
2021/07/29 10:25:11;;;;;;;17.20;16.30;;;22.50;77.30;;;;;;5059984;28;20477;-63
2021/07/29 10:27:40;;;;;;;16.33;15.50;;;22.70;78.00;;;;;;5052283;28;20468;-63
2021/07/29 10:30:36;;;;;;;17.20;16.40;;;23.30;77.70;;;;;;5052438;28;20552;-63
2021/07/29 10:33:18;;;;;;;16.17;15.40;;;23.60;74.70;;;;;;5046997;28;20460;-63
2021/07/29 10:35:45;;;;;;;16.23;15.33;;;23.50;74.00;;;;;;5068070;28;20431;-64
2021/07/29 10:38:11;;;;;;;17.47;16.37;;;23.50;72.60;;;;;;5071836;28;20468;-61
2021/07/29 10:40:40;;;;;;;16.90;16.17;;;23.60;71.90;;;;;;5072126;28;20450;-63
2021/07/29 10:43:39;;;;;;;17.37;16.67;;;23.50;67.30;;;;;;5071814;28;20431;-64
2021/07/29 10:46:07;;;;;;;18.60;17.50;;;23.60;67.30;;;;;;5070210;28;20485;-62
2021/07/29 10:49:13;;;;;;;17.93;17.13;;;24.00;65.00;;;;;;5051956;28;20460;-63
2021/07/29 10:52:07;;;;;;;17.40;16.70;;;24.10;64.30;;;;;;5051774;28;20475;-62
2021/07/29 10:54:36;;;;;;;17.90;17.10;;;23.90;63.00;;;;;;5051853;28;20436;-62
2021/07/29 10:57:04;;;;;;;18.97;17.93;;;24.00;63.60;;;;;;5051959;28;20448;-63
2021/07/29 10:59:32;;;;;;;17.10;16.33;;;24.50;64.10;;;;;;5062481;28;20467;-61
2021/07/29 11:02:01;;;;;;;17.30;16.60;;;24.50;64.50;;;;;;5071002;28;20454;-64
2021/07/29 11:04:30;;;;;;;17.37;16.57;;;24.40;60.00;;;;;;5072106;28;20474;-64
2021/07/29 11:07:00;;;;;;;17.43;16.63;;;23.90;60.30;;;;;;5072445;28;20508;-63
2021/07/29 11:09:29;;;;;;;17.50;16.80;;;23.90;61.80;;;;;;5071491;28;20479;-64
2021/07/29 11:11:56;;;;;;;17.87;16.97;;;23.80;60.90;;;;;;5055790;28;21024;-64
2021/07/29 11:14:26;;;;;;;18.80;17.80;;;23.70;61.80;;;;;;5051023;28;20449;-64
2021/07/29 11:16:57;;;;;;;17.80;16.83;;;23.60;61.60;;;;;;5051067;28;20443;-64
2021/07/29 11:19:24;;;;;;;19.17;18.00;;;23.40;62.40;;;;;;5050960;28;20847;-63
2021/07/29 11:22:03;;;;;;;17.33;16.43;;;23.00;63.40;;;;;;5050989;28;20455;-64
2021/07/29 11:24:30;;;;;;;17.77;16.90;;;22.90;64.80;;;;;;5051053;28;20947;-64
2021/07/29 11:26:58;;;;;;;19.13;18.20;;;22.80;65.90;;;;;;5050809;28;20444;-63
2021/07/29 11:29:24;;;;;;;17.53;16.83;;;22.60;64.20;;;;;;5050762;28;20464;-64
2021/07/29 11:31:55;;;;;;;18.23;17.13;;;22.90;66.40;;;;;;5061656;28;20443;-63
2021/07/29 11:34:29;;;;;;;17.53;16.90;;;23.00;65.20;;;;;;5070880;28;20446;-63
2021/07/29 11:36:56;;;;;;;17.63;16.80;;;23.50;63.00;;;;;;5070718;28;20488;-62
2021/07/29 11:39:25;;;;;;;18.60;17.70;;;23.50;62.40;;;;;;5070803;28;20470;-63
2021/07/29 11:41:52;;;;;;;17.33;16.67;;;24.50;60.90;;;;;;5059502;28;20871;-64
2021/07/29 11:44:19;;;;;;;18.57;17.77;;;25.50;59.00;;;;;;5050811;28;20444;-64
2021/07/29 11:46:58;;;;;;;18.70;17.73;;;27.40;55.20;;;;;;5050487;28;20479;-64
2021/07/29 11:49:25;;;;;;;19.10;17.90;;;27.20;51.50;;;;;;5050687;28;20475;-64
2021/07/29 11:52:05;;;;;;;18.53;17.53;;;27.50;53.20;;;;;;5050351;28;20985;-63
2021/07/29 11:54:32;;;;;;;18.87;17.87;;;30.10;46.90;;;;;;5068461;28;20454;-64
2021/07/29 11:56:59;;;;;;;18.30;17.50;;;28.50;46.40;;;;;;5070585;28;20801;-63
2021/07/29 11:59:26;;;;;;;18.60;17.73;;;27.50;47.00;;;;;;5070257;28;20463;-64
2021/07/29 12:01:55;;;;;;;18.60;17.90;;;30.60;46.50;;;;;;5069815;28;20446;-63
2021/07/29 12:04:27;;;;;;;18.77;17.97;;;30.90;41.70;;;;;;5069335;28;20447;-64
2021/07/29 12:06:54;;;;;;;18.83;18.13;;;33.80;40.50;;;;;;5051245;28;20478;-64
2021/07/29 12:09:22;;;;;;;18.90;18.07;;;35.60;36.90;;;;;;5033061;28;1031304;-64
2021/07/29 12:11:51;;;;;;;20.58;19.75;;;36.70;34.00;;;;;;5070879;28;20254;-64
2021/07/29 12:14:18;;;;;;;20.08;19.08;;;37.60;31.70;;;;;;5071225;28;20482;-64
2021/07/29 12:16:47;;;;;;;19.77;18.98;;;36.70;29.70;;;;;;5070710;28;20201;-64
2021/07/29 12:19:14;;;;;;;21.00;19.92;;;36.90;31.40;;;;;;5031008;28;20218;-64
2021/07/29 12:21:43;;;;;;;19.85;19.02;;;39.00;30.40;;;;;;5030723;28;20232;-65
2021/07/29 12:24:11;;;;;;;19.52;18.83;;;41.10;28.50;;;;;;5031226;28;20202;-64
2021/07/29 12:26:38;;;;;;;18.77;18.05;;;41.30;25.90;;;;;;5030870;28;20229;-64
2021/07/29 12:29:04;;;;;;;19.90;19.02;;;40.10;26.00;;;;;;5030845;28;20237;-64
2021/07/29 12:31:32;;;;;;;19.85;18.73;;;37.10;27.20;;;;;;5069488;28;20212;-63
2021/07/29 12:34:01;;;;;;;19.63;18.60;;;33.80;30.60;;;;;;5070848;28;20212;-64
2021/07/29 12:36:43;;;;;;;20.67;19.77;;;30.80;33.60;;;;;;5071691;28;20196;-63
2021/07/29 12:39:11;;;;;;;21.10;20.10;;;33.50;36.30;;;;;;5057873;28;20491;-63
2021/07/29 12:41:39;;;;;;;20.33;19.43;;;35.80;31.60;;;;;;5054316;28;20439;-63
2021/07/29 12:44:07;;;;;;;20.47;19.57;;;36.50;29.80;;;;;;5054410;28;20284;-63